Time;durP1;ratioP1;P1;durP2;ratioP2;P2;SDS_P1;SDS_P2;PMS_P1;PMS_P2;Temp;Humidity;BMP_temperature;BMP_pressure;BME280_temperature;BME280_humidity;BME280_pressure;Samples;Min_cycle;Max_cycle;Signal;HPM_P1;HPM_P2
2022/03/29 04:02:32;;;;;;;15.07;9.80;;;7.60;99.90;;;;;;5016481;23;20493;-76
2022/03/29 04:04:59;;;;;;;18.63;9.27;;;7.60;99.90;;;;;;4950961;29;20548;-76
2022/03/29 04:07:26;;;;;;;15.10;10.03;;;7.60;99.90;;;;;;4949174;29;20461;-76
2022/03/29 04:09:53;;;;;;;16.20;9.70;;;7.60;99.90;;;;;;4949594;29;20457;-75
2022/03/29 04:12:20;;;;;;;13.37;9.33;;;7.50;99.90;;;;;;4949771;28;20976;-76
2022/03/29 04:14:47;;;;;;;19.70;9.93;;;7.50;99.90;;;;;;4949902;29;20461;-76
2022/03/29 04:17:13;;;;;;;12.73;8.10;;;7.50;99.90;;;;;;4949759;28;20461;-76
2022/03/29 04:19:42;;;;;;;16.93;9.97;;;7.50;99.90;;;;;;4950859;29;20461;-75
2022/03/29 04:22:09;;;;;;;19.20;9.07;;;7.50;99.90;;;;;;4948669;28;20477;-76
2022/03/29 04:24:36;;;;;;;16.70;9.30;;;7.40;99.90;;;;;;4950040;29;20457;-77
2022/03/29 04:27:03;;;;;;;19.23;9.37;;;7.40;99.90;;;;;;4949186;29;20461;-77
2022/03/29 04:29:30;;;;;;;15.03;9.73;;;7.40;99.90;;;;;;4951516;29;20822;-76
2022/03/29 04:31:57;;;;;;;15.03;10.27;;;7.40;99.90;;;;;;4949500;28;20541;-77
2022/03/29 04:34:23;;;;;;;13.50;8.43;;;7.40;99.90;;;;;;4951099;28;20839;-77
2022/03/29 04:36:52;;;;;;;13.17;8.80;;;7.40;99.90;;;;;;4949538;29;20461;-77
2022/03/29 04:39:18;;;;;;;11.30;8.07;;;7.40;99.90;;;;;;4949300;28;20929;-76
2022/03/29 04:41:45;;;;;;;12.83;8.13;;;7.30;99.90;;;;;;4950024;28;20488;-76
2022/03/29 04:44:12;;;;;;;16.20;9.90;;;7.30;99.90;;;;;;4950509;29;20457;-76
2022/03/29 04:46:39;;;;;;;13.93;8.50;;;7.30;99.90;;;;;;4948925;29;21020;-75
2022/03/29 04:49:06;;;;;;;15.77;9.10;;;7.30;99.90;;;;;;4949871;29;20462;-75
2022/03/29 04:51:34;;;;;;;16.30;9.50;;;7.30;99.90;;;;;;4950716;28;20572;-78
2022/03/29 04:54:03;;;;;;;20.20;11.10;;;7.30;99.90;;;;;;4949428;29;20511;-68
2022/03/29 04:56:30;;;;;;;17.43;9.70;;;7.30;99.90;;;;;;4948162;29;20457;-69
2022/03/29 04:58:57;;;;;;;17.47;10.50;;;7.30;99.90;;;;;;4949110;28;21032;-67
2022/03/29 05:01:24;;;;;;;20.00;10.80;;;7.20;99.90;;;;;;4948806;28;20478;-67
2022/03/29 05:03:50;;;;;;;14.30;9.43;;;7.20;99.90;;;;;;4949171;29;20461;-68
2022/03/29 05:06:17;;;;;;;16.37;10.33;;;7.20;99.90;;;;;;4949721;29;20984;-79
2022/03/29 05:08:44;;;;;;;18.33;10.03;;;7.10;99.90;;;;;;4950172;29;20541;-76
2022/03/29 05:11:12;;;;;;;16.17;10.40;;;7.10;99.90;;;;;;4951199;28;20569;-76
2022/03/29 05:13:39;;;;;;;16.07;10.47;;;7.10;99.90;;;;;;4951819;28;20588;-75
2022/03/29 05:16:06;;;;;;;15.43;9.30;;;7.10;99.90;;;;;;4952096;29;20458;-76
2022/03/29 05:18:33;;;;;;;18.43;9.70;;;7.00;99.90;;;;;;4951214;29;20462;-77
2022/03/29 05:21:00;;;;;;;18.20;10.20;;;7.00;99.90;;;;;;4951024;28;20939;-75
2022/03/29 05:23:27;;;;;;;13.07;9.83;;;7.00;99.90;;;;;;4950411;29;20458;-79
2022/03/29 05:25:54;;;;;;;19.13;10.30;;;7.00;99.90;;;;;;4950797;29;20461;-76
2022/03/29 05:28:22;;;;;;;17.37;10.87;;;7.00;99.90;;;;;;4949986;29;20568;-75
2022/03/29 05:30:49;;;;;;;16.03;9.73;;;7.10;99.90;;;;;;4950498;28;20478;-73
2022/03/29 05:33:18;;;;;;;15.93;9.73;;;7.00;99.90;;;;;;4950095;29;20568;-75
2022/03/29 05:35:45;;;;;;;18.60;10.03;;;7.00;99.90;;;;;;4950411;29;21013;-76
2022/03/29 05:38:12;;;;;;;15.13;10.33;;;7.00;99.90;;;;;;4949650;29;21256;-76
2022/03/29 05:40:39;;;;;;;14.63;10.40;;;7.00;99.90;;;;;;4950116;28;20588;-76
2022/03/29 05:43:10;;;;;;;17.93;10.20;;;6.90;99.90;;;;;;4951743;29;20458;-77
2022/03/29 05:45:39;;;;;;;18.27;9.90;;;7.00;99.90;;;;;;4952457;29;20454;-78
2022/03/29 05:50:52;;;;;;;15.87;9.80;;;7.00;99.90;;;;;;4951702;28;20850;-78
2022/03/29 05:53:19;;;;;;;16.50;10.80;;;7.00;99.90;;;;;;4951946;28;20493;-78
2022/03/29 05:55:48;;;;;;;29.33;11.13;;;7.00;99.90;;;;;;4953967;29;20461;-78
2022/03/29 05:58:16;;;;;;;15.77;9.77;;;7.00;99.90;;;;;;4957837;29;20493;-77
2022/03/29 06:00:44;;;;;;;17.13;10.20;;;7.00;99.90;;;;;;4953322;28;20493;-77
2022/03/29 06:03:11;;;;;;;18.60;10.80;;;7.00;99.90;;;;;;4955959;29;20448;-78
2022/03/29 06:05:42;;;;;;;16.20;11.20;;;7.00;99.90;;;;;;4952686;29;20986;-77
2022/03/29 06:08:09;;;;;;;19.87;10.77;;;7.00;99.90;;;;;;4951420;29;20481;-77
2022/03/29 06:10:37;;;;;;;19.83;10.13;;;7.00;99.90;;;;;;4951778;28;20481;-77
2022/03/29 06:13:04;;;;;;;19.60;11.10;;;7.10;99.90;;;;;;4950981;29;21043;-77
2022/03/29 06:15:32;;;;;;;17.90;11.33;;;7.00;99.90;;;;;;4949857;29;20949;-77
2022/03/29 06:18:00;;;;;;;16.20;10.23;;;7.00;99.90;;;;;;4950153;28;20529;-77
2022/03/29 06:20:27;;;;;;;18.33;10.70;;;7.00;99.90;;;;;;4950309;28;20549;-77
2022/03/29 06:22:54;;;;;;;18.87;11.00;;;7.00;99.90;;;;;;4950378;29;20552;-77
2022/03/29 06:25:21;;;;;;;17.90;11.20;;;7.00;99.90;;;;;;4950825;29;20544;-77
2022/03/29 06:27:48;;;;;;;18.70;10.37;;;7.00;99.90;;;;;;4950210;29;20500;-77
2022/03/29 06:30:15;;;;;;;16.20;11.43;;;7.10;99.90;;;;;;4950463;28;20461;-77
2022/03/29 06:32:48;;;;;;;18.60;10.97;;;7.10;99.90;;;;;;4950749;29;20970;-77
2022/03/29 06:35:19;;;;;;;17.20;9.87;;;7.10;99.90;;;;;;4949454;29;20472;-77
2022/03/29 06:37:45;;;;;;;15.27;11.00;;;7.20;99.90;;;;;;4948893;29;20461;-78
2022/03/29 06:40:13;;;;;;;18.70;11.40;;;7.10;99.90;;;;;;4949171;29;20541;-77
2022/03/29 06:42:40;;;;;;;22.23;11.53;;;7.10;99.90;;;;;;4949689;28;20532;-77
2022/03/29 06:45:09;;;;;;;21.53;12.00;;;7.20;99.90;;;;;;4949595;29;20449;-77
2022/03/29 06:47:36;;;;;;;21.73;11.70;;;7.20;99.90;;;;;;4949093;28;20469;-76
2022/03/29 06:50:04;;;;;;;18.23;11.60;;;7.20;99.90;;;;;;4948855;29;20546;-77
2022/03/29 06:52:36;;;;;;;22.00;11.40;;;7.20;99.90;;;;;;4949165;28;20481;-77
2022/03/29 06:55:03;;;;;;;13.77;10.37;;;7.20;99.90;;;;;;4948390;29;20468;-75
2022/03/29 06:57:30;;;;;;;20.70;11.10;;;7.30;99.90;;;;;;4948448;29;20461;-77
2022/03/29 06:59:57;;;;;;;20.80;11.90;;;7.30;99.90;;;;;;4948143;29;20465;-77
2022/03/29 07:02:24;;;;;;;30.83;11.63;;;7.30;99.90;;;;;;4946903;28;20485;-77
2022/03/29 07:04:51;;;;;;;19.57;11.30;;;7.40;99.90;;;;;;4947399;28;20480;-76
2022/03/29 07:07:18;;;;;;;17.87;11.10;;;7.50;99.90;;;;;;4951207;29;20499;-77
2022/03/29 07:12:31;;;;;;;19.87;11.73;;;7.70;99.90;;;;;;4943880;29;20484;-77
2022/03/29 07:14:58;;;;;;;20.50;11.00;;;7.70;99.90;;;;;;4951480;29;21037;-76
2022/03/29 07:17:25;;;;;;;20.13;11.50;;;7.80;99.90;;;;;;4951406;29;20516;-77
2022/03/29 07:19:52;;;;;;;21.27;12.17;;;7.90;99.90;;;;;;4951890;29;20465;-77
2022/03/29 07:22:19;;;;;;;17.47;11.10;;;7.90;99.90;;;;;;4950789;28;20849;-77
2022/03/29 07:24:47;;;;;;;18.43;11.27;;;7.90;99.90;;;;;;4951616;29;20504;-77
2022/03/29 07:27:14;;;;;;;20.63;12.77;;;7.90;99.90;;;;;;4950748;29;20467;-77
2022/03/29 07:29:42;;;;;;;28.83;12.27;;;8.00;99.90;;;;;;4951388;29;20457;-77
2022/03/29 07:32:09;;;;;;;16.03;11.83;;;8.10;99.90;;;;;;4951689;28;20572;-77
2022/03/29 07:34:36;;;;;;;17.30;11.63;;;8.10;99.90;;;;;;4950894;29;20496;-76
2022/03/29 07:37:03;;;;;;;17.40;11.47;;;8.20;99.90;;;;;;4951086;29;20548;-76
2022/03/29 07:39:30;;;;;;;20.37;11.93;;;8.20;99.90;;;;;;4951212;29;20950;-77
2022/03/29 07:41:58;;;;;;;25.47;12.77;;;8.30;99.90;;;;;;4950993;28;20516;-77
2022/03/29 07:44:25;;;;;;;18.00;11.63;;;8.40;99.90;;;;;;4951224;29;20515;-75
2022/03/29 07:46:53;;;;;;;28.80;12.20;;;8.40;99.90;;;;;;4951043;29;20468;-77
2022/03/29 07:49:19;;;;;;;20.33;11.60;;;8.50;99.90;;;;;;4950745;29;20492;-76
2022/03/29 07:51:47;;;;;;;19.70;11.57;;;8.60;99.90;;;;;;4951108;28;20476;-77
2022/03/29 07:54:14;;;;;;;20.43;11.30;;;8.70;99.90;;;;;;4951506;29;20505;-77
2022/03/29 07:56:41;;;;;;;18.80;11.63;;;8.80;99.90;;;;;;4950823;29;20460;-77
2022/03/29 07:59:09;;;;;;;23.43;11.70;;;8.80;99.90;;;;;;4952316;29;20468;-77
2022/03/29 08:01:36;;;;;;;19.27;12.20;;;8.90;99.90;;;;;;4951058;28;20825;-77
2022/03/29 08:04:04;;;;;;;20.57;11.53;;;9.00;99.90;;;;;;4951208;28;20465;-77
2022/03/29 08:06:31;;;;;;;14.13;10.30;;;9.10;99.90;;;;;;4953056;28;20476;-76
2022/03/29 08:08:58;;;;;;;21.67;11.60;;;9.20;99.90;;;;;;4955065;29;20468;-77
2022/03/29 08:11:24;;;;;;;19.53;11.47;;;9.30;99.90;;;;;;4955763;28;20556;-77
2022/03/29 08:13:52;;;;;;;18.47;12.23;;;9.50;99.90;;;;;;4956320;29;20508;-78
2022/03/29 08:16:20;;;;;;;20.63;11.60;;;9.70;99.90;;;;;;4953539;28;20457;-77
2022/03/29 08:18:47;;;;;;;23.17;11.90;;;9.90;99.90;;;;;;4953387;29;20453;-76
2022/03/29 08:23:59;;;;;;;18.77;11.10;;;10.20;99.90;;;;;;4955549;29;20937;-77
2022/03/29 08:26:26;;;;;;;28.50;12.80;;;10.40;99.90;;;;;;4956135;29;20548;-78
2022/03/29 08:28:53;;;;;;;19.20;12.70;;;10.70;99.90;;;;;;4956795;28;20485;-77
2022/03/29 08:31:21;;;;;;;21.33;12.40;;;10.90;99.90;;;;;;4957462;28;20512;-77
2022/03/29 08:33:48;;;;;;;26.53;11.73;;;10.90;99.90;;;;;;4957344;29;20505;-78
2022/03/29 08:36:16;;;;;;;22.50;12.60;;;11.00;99.90;;;;;;4956057;29;20554;-78
2022/03/29 08:38:44;;;;;;;18.47;12.20;;;11.00;99.90;;;;;;4958954;28;20468;-77
2022/03/29 08:41:11;;;;;;;18.70;12.43;;;11.00;99.90;;;;;;4955970;28;20478;-78
2022/03/29 08:43:38;;;;;;;22.93;12.90;;;11.30;99.90;;;;;;4961683;29;20826;-78
2022/03/29 08:46:05;;;;;;;19.73;12.27;;;11.30;99.90;;;;;;4956795;29;20529;-78
2022/03/29 08:48:33;;;;;;;25.93;13.07;;;11.40;99.90;;;;;;4954355;29;20484;-78
2022/03/29 08:51:01;;;;;;;17.97;11.93;;;11.50;99.90;;;;;;4956057;28;20469;-77
2022/03/29 08:53:29;;;;;;;20.73;12.13;;;11.70;99.90;;;;;;4950419;28;20557;-69
2022/03/29 08:55:56;;;;;;;18.07;12.03;;;12.00;99.90;;;;;;4954768;29;20481;-77
2022/03/29 08:58:24;;;;;;;21.87;12.73;;;12.40;99.90;;;;;;4955332;29;20850;-77
2022/03/29 09:00:51;;;;;;;23.23;14.43;;;12.60;99.90;;;;;;4955798;28;21424;-78
2022/03/29 09:03:19;;;;;;;21.73;14.17;;;12.70;99.90;;;;;;4956011;29;20461;-76
2022/03/29 09:05:48;;;;;;;27.20;14.10;;;12.60;99.90;;;;;;4956742;29;20461;-79
2022/03/29 09:08:15;;;;;;;18.10;12.67;;;12.60;99.90;;;;;;4955523;29;21017;-77
2022/03/29 09:10:44;;;;;;;20.57;13.10;;;12.60;99.90;;;;;;4956519;28;20489;-77
2022/03/29 09:13:19;;;;;;;24.07;13.60;;;12.60;99.90;;;;;;4956521;28;20468;-77
2022/03/29 09:15:47;;;;;;;21.17;12.97;;;12.70;99.90;;;;;;4956228;29;20519;-78
2022/03/29 09:18:13;;;;;;;23.07;14.00;;;12.80;99.90;;;;;;4954871;29;20532;-77
2022/03/29 09:20:41;;;;;;;25.50;14.20;;;12.90;99.50;;;;;;4955516;28;20506;-78
2022/03/29 09:23:15;;;;;;;22.33;14.13;;;13.00;99.90;;;;;;4955922;29;20957;-77
2022/03/29 09:25:47;;;;;;;23.83;13.57;;;13.00;99.70;;;;;;4956139;29;20973;-76
2022/03/29 09:28:15;;;;;;;25.03;13.17;;;13.10;99.90;;;;;;4954770;28;20462;-78
2022/03/29 09:30:43;;;;;;;23.20;14.27;;;13.10;99.60;;;;;;4954922;28;20560;-76
2022/03/29 09:33:12;;;;;;;30.13;13.87;;;13.20;99.90;;;;;;4956191;29;20464;-78
2022/03/29 09:35:53;;;;;;;30.70;13.80;;;13.20;99.50;;;;;;4955280;29;20496;-76
2022/03/29 09:38:24;;;;;;;21.47;13.43;;;13.40;99.90;;;;;;4954865;29;20456;-78
2022/03/29 09:40:51;;;;;;;29.23;15.10;;;13.50;99.60;;;;;;4955520;28;20481;-78
2022/03/29 09:43:22;;;;;;;29.43;14.10;;;13.50;99.90;;;;;;4956956;28;20457;-77
2022/03/29 09:45:50;;;;;;;26.80;14.20;;;13.60;99.40;;;;;;4957905;29;20454;-78
2022/03/29 09:48:37;;;;;;;22.50;14.80;;;13.60;99.10;;;;;;4957194;29;20576;-78
2022/03/29 09:51:21;;;;;;;24.93;14.07;;;13.70;99.10;;;;;;4957554;28;20501;-76
2022/03/29 09:53:51;;;;;;;23.83;15.17;;;13.70;98.70;;;;;;4955843;28;20512;-77
2022/03/29 09:56:24;;;;;;;26.23;15.03;;;13.80;98.70;;;;;;4957484;29;20481;-78
2022/03/29 09:59:03;;;;;;;35.47;15.27;;;13.90;98.90;;;;;;4958862;29;20577;-78
2022/03/29 10:01:30;;;;;;;27.90;15.90;;;14.00;98.90;;;;;;4957236;28;21068;-77
2022/03/29 10:03:58;;;;;;;26.03;15.70;;;14.10;98.10;;;;;;4958641;29;20485;-78
2022/03/29 10:06:25;;;;;;;25.90;16.03;;;14.30;97.70;;;;;;4957302;29;20458;-78
2022/03/29 10:11:43;;;;;;;27.50;17.27;;;14.50;98.00;;;;;;4955646;28;20460;-78
2022/03/29 10:14:14;;;;;;;29.47;17.63;;;14.70;97.00;;;;;;4956401;29;20505;-77
2022/03/29 10:16:44;;;;;;;26.77;16.00;;;14.70;96.30;;;;;;4952787;29;20468;-70
2022/03/29 10:19:12;;;;;;;37.10;17.00;;;14.70;96.60;;;;;;4953070;29;20450;-77
2022/03/29 10:21:39;;;;;;;31.20;16.83;;;14.80;96.40;;;;;;4955845;28;20477;-78
2022/03/29 10:24:08;;;;;;;28.67;16.83;;;15.00;95.80;;;;;;4952628;29;20465;-77
2022/03/29 10:26:35;;;;;;;32.63;17.13;;;15.00;96.70;;;;;;4952887;29;20453;-77
2022/03/29 10:29:02;;;;;;;35.37;17.83;;;15.20;96.60;;;;;;4953184;29;21049;-77
2022/03/29 10:31:31;;;;;;;32.73;17.30;;;15.30;95.30;;;;;;4949452;28;20511;-77
2022/03/29 10:34:13;;;;;;;28.43;16.80;;;15.30;93.80;;;;;;4948984;29;20469;-77
2022/03/29 10:37:03;;;;;;;34.83;17.57;;;15.50;93.10;;;;;;4948582;29;20457;-77
2022/03/29 10:40:01;;;;;;;31.67;17.60;;;15.60;94.70;;;;;;4940932;29;20466;-81
2022/03/29 10:42:39;;;;;;;39.27;20.17;;;15.70;93.70;;;;;;4949314;29;21031;-77
2022/03/29 10:45:19;;;;;;;31.33;16.87;;;15.90;93.90;;;;;;4949800;29;20534;-77
2022/03/29 10:47:50;;;;;;;29.73;17.07;;;16.00;94.10;;;;;;4948471;29;20548;-76
2022/03/29 10:50:17;;;;;;;34.63;17.77;;;16.20;92.60;;;;;;4948933;28;20466;-75
2022/03/29 10:52:47;;;;;;;30.33;18.53;;;16.30;91.60;;;;;;4948989;29;20512;-75
2022/03/29 10:55:21;;;;;;;34.03;19.20;;;16.30;91.90;;;;;;4949548;29;20501;-81
2022/03/29 10:58:12;;;;;;;34.30;18.27;;;16.30;91.70;;;;;;4948535;29;20656;-78
2022/03/29 11:00:41;;;;;;;34.17;16.97;;;16.40;92.40;;;;;;4949164;28;20496;-79
2022/03/29 11:03:13;;;;;;;37.47;19.80;;;16.70;92.90;;;;;;4949179;29;20473;-76
2022/03/29 11:06:06;;;;;;;37.90;18.87;;;17.00;91.30;;;;;;4948036;29;20464;-75
2022/03/29 11:08:34;;;;;;;31.43;18.97;;;17.20;92.80;;;;;;4946272;29;20464;-78
2022/03/29 11:11:03;;;;;;;33.93;19.13;;;17.30;90.70;;;;;;4947303;28;20484;-76
2022/03/29 11:13:32;;;;;;;35.50;19.93;;;17.50;90.40;;;;;;4947889;29;20461;-76
2022/03/29 11:16:02;;;;;;;34.53;17.47;;;17.70;90.70;;;;;;4947461;29;21057;-77
2022/03/29 11:18:50;;;;;;;33.10;20.10;;;17.80;90.60;;;;;;4946625;29;20468;-80
2022/03/29 11:21:32;;;;;;;31.97;19.20;;;17.70;88.40;;;;;;4947277;28;20485;-79
2022/03/29 11:24:01;;;;;;;36.97;20.23;;;17.60;88.90;;;;;;4947482;29;20537;-76
2022/03/29 11:26:29;;;;;;;35.27;19.60;;;17.50;87.20;;;;;;4946868;29;20458;-76
2022/03/29 11:28:58;;;;;;;33.93;19.23;;;17.50;86.80;;;;;;4947863;29;20457;-77
2022/03/29 11:31:33;;;;;;;33.27;18.77;;;17.40;86.90;;;;;;4947706;28;20582;-80
2022/03/29 11:34:00;;;;;;;33.33;18.53;;;17.50;89.70;;;;;;4947851;29;20473;-77
2022/03/29 11:36:27;;;;;;;32.47;17.23;;;17.60;88.80;;;;;;4946866;29;20544;-76
2022/03/29 11:38:54;;;;;;;33.60;17.77;;;17.90;87.10;;;;;;4948044;29;20492;-79
2022/03/29 11:41:22;;;;;;;36.30;19.90;;;18.20;85.70;;;;;;4947962;28;20469;-76
2022/03/29 11:43:56;;;;;;;36.23;20.03;;;18.30;86.50;;;;;;4947642;29;20462;-75
2022/03/29 11:46:23;;;;;;;28.90;17.80;;;18.60;87.10;;;;;;4949216;29;20442;-80
2022/03/29 11:48:52;;;;;;;32.93;18.07;;;18.60;86.20;;;;;;4947005;29;20500;-68
2022/03/29 11:51:21;;;;;;;33.30;18.80;;;18.50;80.50;;;;;;4947180;28;20576;-67
2022/03/29 11:53:57;;;;;;;28.07;16.87;;;18.50;83.20;;;;;;4949839;29;20973;-68
2022/03/29 11:56:24;;;;;;;36.00;17.43;;;18.40;84.30;;;;;;4949641;29;20485;-67
2022/03/29 11:58:52;;;;;;;34.17;18.00;;;18.60;84.00;;;;;;4950700;29;20536;-67
2022/03/29 12:01:22;;;;;;;34.70;17.83;;;18.70;84.50;;;;;;4950468;28;20521;-67
2022/03/29 12:03:56;;;;;;;30.70;18.80;;;18.70;82.60;;;;;;4951017;29;21020;-68
2022/03/29 12:06:25;;;;;;;32.70;19.70;;;18.60;80.50;;;;;;4949934;29;20828;-68
2022/03/29 12:08:54;;;;;;;30.07;18.93;;;18.50;81.20;;;;;;4950622;28;20457;-76
2022/03/29 12:11:24;;;;;;;31.30;18.57;;;18.70;81.30;;;;;;4951518;28;20474;-75
2022/03/29 12:14:01;;;;;;;28.03;17.17;;;18.70;81.30;;;;;;4950998;29;21099;-76
2022/03/29 12:16:32;;;;;;;37.00;18.63;;;18.70;81.00;;;;;;4950834;29;20574;-76
2022/03/29 12:18:59;;;;;;;30.40;19.00;;;18.70;80.40;;;;;;4951223;29;20465;-75
2022/03/29 12:21:26;;;;;;;38.07;18.67;;;18.70;81.30;;;;;;4951183;28;20507;-75
2022/03/29 12:24:05;;;;;;;37.07;19.40;;;18.70;80.80;;;;;;4951553;28;20540;-74
2022/03/29 12:26:33;;;;;;;31.60;18.77;;;19.10;79.80;;;;;;4950785;29;20534;-77
2022/03/29 12:29:01;;;;;;;34.00;19.63;;;19.10;79.40;;;;;;4951561;29;20461;-75
2022/03/29 12:31:30;;;;;;;33.67;19.00;;;18.90;79.70;;;;;;4951456;28;20487;-75
2022/03/29 12:33:58;;;;;;;28.90;18.63;;;18.80;79.90;;;;;;4951599;29;20541;-75
2022/03/29 12:36:26;;;;;;;34.33;18.83;;;18.80;78.80;;;;;;4950867;29;20556;-76
2022/03/29 12:38:55;;;;;;;34.87;19.03;;;18.80;79.80;;;;;;4951330;29;21005;-75
2022/03/29 12:41:38;;;;;;;35.10;18.70;;;18.90;80.40;;;;;;4949937;28;20837;-68
2022/03/29 12:44:06;;;;;;;33.10;18.90;;;19.00;82.50;;;;;;4951203;28;20469;-77
2022/03/29 12:46:35;;;;;;;36.13;19.37;;;19.00;79.80;;;;;;4951055;29;20524;-77
2022/03/29 12:49:02;;;;;;;29.90;19.53;;;18.90;79.70;;;;;;4951044;29;20457;-78
2022/03/29 12:51:31;;;;;;;37.70;19.70;;;18.90;79.60;;;;;;4964758;28;21076;-80
2022/03/29 12:54:00;;;;;;;33.27;19.37;;;18.80;79.70;;;;;;4970357;28;20457;-77
2022/03/29 12:56:32;;;;;;;28.77;18.93;;;18.80;79.50;;;;;;4969717;28;21095;-77
2022/03/29 12:59:00;;;;;;;32.97;20.27;;;19.00;79.70;;;;;;4970346;28;20964;-77
2022/03/29 13:01:29;;;;;;;35.20;18.90;;;19.00;78.90;;;;;;4970255;28;20579;-77
2022/03/29 13:04:08;;;;;;;43.20;20.60;;;19.10;79.60;;;;;;4970313;28;20512;-75
2022/03/29 13:06:43;;;;;;;35.60;19.43;;;19.20;79.50;;;;;;4969970;28;21204;-77
2022/03/29 13:09:16;;;;;;;34.33;19.53;;;19.20;77.90;;;;;;4970680;28;20865;-76
2022/03/29 13:11:43;;;;;;;29.50;19.37;;;19.10;79.00;;;;;;4970447;28;20476;-76
2022/03/29 13:14:12;;;;;;;28.53;17.93;;;19.00;79.30;;;;;;4970074;28;20514;-76
2022/03/29 13:16:50;;;;;;;32.43;19.00;;;19.00;78.90;;;;;;4969216;28;20484;-76
2022/03/29 13:19:19;;;;;;;32.50;19.93;;;18.90;79.40;;;;;;4969702;28;20796;-76
2022/03/29 13:21:46;;;;;;;32.73;19.33;;;18.80;78.30;;;;;;4968574;28;20504;-67
2022/03/29 13:24:16;;;;;;;34.37;19.80;;;18.80;80.00;;;;;;4969075;28;21307;-79
2022/03/29 13:26:46;;;;;;;32.80;19.27;;;18.90;79.20;;;;;;4969158;28;20844;-78
2022/03/29 13:29:15;;;;;;;29.00;18.37;;;18.80;78.50;;;;;;4970372;28;20437;-76
2022/03/29 13:31:44;;;;;;;36.40;19.87;;;18.90;80.00;;;;;;4969398;28;20472;-77
2022/03/29 13:34:12;;;;;;;30.40;18.13;;;18.90;80.70;;;;;;4969454;28;20465;-77
2022/03/29 13:36:41;;;;;;;37.27;17.27;;;19.10;79.70;;;;;;4968295;28;20492;-76
2022/03/29 13:39:09;;;;;;;26.67;16.73;;;19.00;78.40;;;;;;4969903;28;21080;-76
2022/03/29 13:41:36;;;;;;;28.10;17.13;;;18.90;79.90;;;;;;4969213;28;20527;-79
2022/03/29 13:44:04;;;;;;;34.70;18.93;;;18.90;79.70;;;;;;4969014;28;20872;-76
2022/03/29 13:46:31;;;;;;;32.77;17.40;;;18.90;77.80;;;;;;4966536;28;20470;-78
2022/03/29 13:48:57;;;;;;;29.97;18.10;;;18.90;79.40;;;;;;4968770;28;20516;-77
2022/03/29 13:51:25;;;;;;;27.63;17.50;;;18.90;77.10;;;;;;4968792;28;21320;-77
2022/03/29 13:53:53;;;;;;;30.47;18.50;;;18.90;79.20;;;;;;4968556;28;20456;-76
2022/03/29 13:56:21;;;;;;;35.67;17.67;;;19.00;78.20;;;;;;4968235;28;20524;-77
2022/03/29 13:58:48;;;;;;;26.57;17.40;;;19.00;78.10;;;;;;4969047;28;20456;-77
2022/03/29 14:01:15;;;;;;;34.03;18.60;;;18.80;76.50;;;;;;4968916;28;20488;-77
2022/03/29 14:03:42;;;;;;;25.53;16.07;;;18.80;78.60;;;;;;4968764;28;20512;-78
2022/03/29 14:06:09;;;;;;;34.50;18.80;;;18.80;79.80;;;;;;4969365;28;20540;-78
2022/03/29 14:08:36;;;;;;;34.53;17.63;;;18.90;77.30;;;;;;4968569;28;21035;-78
2022/03/29 14:11:05;;;;;;;30.67;16.97;;;18.80;77.90;;;;;;4968588;28;20511;-77
2022/03/29 14:13:32;;;;;;;30.43;18.73;;;18.90;77.80;;;;;;4968555;28;20464;-77
2022/03/29 14:16:01;;;;;;;28.53;16.90;;;18.80;77.40;;;;;;4968639;28;20528;-78
2022/03/29 14:18:28;;;;;;;32.37;18.37;;;18.70;76.80;;;;;;4968123;28;20552;-78
2022/03/29 14:20:58;;;;;;;37.13;19.13;;;18.70;77.60;;;;;;4969270;28;20482;-77
2022/03/29 14:23:26;;;;;;;28.70;17.60;;;18.90;77.40;;;;;;4969751;28;21159;-78
2022/03/29 14:25:53;;;;;;;30.00;17.23;;;19.00;79.10;;;;;;4969149;28;20488;-77
2022/03/29 14:28:23;;;;;;;32.73;18.97;;;19.00;78.50;;;;;;4967852;28;20465;-77
2022/03/29 14:30:50;;;;;;;35.00;18.47;;;19.00;78.60;;;;;;4957167;28;20477;-77
2022/03/29 14:33:18;;;;;;;32.80;18.00;;;19.10;79.00;;;;;;4949077;29;20455;-78
2022/03/29 14:35:46;;;;;;;36.60;16.63;;;19.10;78.80;;;;;;4946084;29;21352;-78
2022/03/29 14:38:14;;;;;;;37.43;18.17;;;19.10;79.90;;;;;;4949279;29;20532;-76
2022/03/29 14:40:41;;;;;;;31.40;18.10;;;19.20;79.70;;;;;;4964247;28;20484;-77
2022/03/29 14:43:08;;;;;;;28.17;16.00;;;19.30;78.90;;;;;;4969029;28;20555;-78
2022/03/29 14:45:36;;;;;;;26.23;14.77;;;19.30;79.00;;;;;;4968188;28;20539;-79
2022/03/29 14:48:03;;;;;;;29.17;12.30;;;19.40;79.30;;;;;;4967726;28;20831;-77
2022/03/29 14:50:32;;;;;;;33.47;11.80;;;19.60;75.40;;;;;;4968400;28;20483;-77
2022/03/29 14:52:59;;;;;;;31.10;10.90;;;19.60;74.70;;;;;;4968576;28;20464;-78
2022/03/29 14:55:27;;;;;;;30.00;11.03;;;19.60;72.10;;;;;;4968695;28;20579;-78
2022/03/29 14:57:54;;;;;;;24.90;12.83;;;19.50;73.90;;;;;;4968049;28;20491;-81
2022/03/29 15:00:22;;;;;;;21.53;11.43;;;19.50;73.50;;;;;;4963282;28;21025;-78
2022/03/29 15:02:50;;;;;;;27.33;11.60;;;19.40;73.20;;;;;;4949547;29;20453;-76
2022/03/29 15:05:18;;;;;;;29.10;11.80;;;19.30;72.70;;;;;;4949702;29;20477;-77
2022/03/29 15:07:46;;;;;;;29.10;12.10;;;19.30;75.80;;;;;;4948572;29;20568;-77
2022/03/29 15:10:12;;;;;;;23.93;13.03;;;19.30;74.70;;;;;;4949521;28;20464;-80
2022/03/29 15:12:39;;;;;;;31.03;15.50;;;19.10;73.70;;;;;;4949425;29;20473;-77
2022/03/29 15:15:07;;;;;;;36.73;15.50;;;19.10;75.00;;;;;;4949035;28;20472;-77
2022/03/29 15:17:35;;;;;;;23.50;13.90;;;19.10;74.70;;;;;;4948563;29;20560;-77
2022/03/29 15:20:03;;;;;;;27.50;14.03;;;19.00;73.90;;;;;;4949312;29;20471;-76
2022/03/29 15:22:31;;;;;;;32.77;15.50;;;18.90;74.90;;;;;;4949261;28;20516;-80
2022/03/29 15:24:58;;;;;;;34.77;16.10;;;18.90;75.70;;;;;;4949468;29;20468;-77
2022/03/29 15:27:24;;;;;;;24.30;12.80;;;18.90;75.90;;;;;;4951190;28;20477;-77
2022/03/29 15:29:52;;;;;;;27.37;14.47;;;18.90;74.90;;;;;;4952624;29;20557;-76
2022/03/29 15:32:20;;;;;;;29.17;13.13;;;18.80;72.80;;;;;;4952597;28;20488;-77
2022/03/29 15:34:47;;;;;;;31.10;14.70;;;18.80;77.80;;;;;;4951215;29;20552;-77
2022/03/29 15:37:16;;;;;;;27.60;13.97;;;18.80;79.90;;;;;;4950217;29;20509;-77
2022/03/29 15:39:45;;;;;;;29.10;16.30;;;18.90;79.50;;;;;;4950606;29;20458;-77
2022/03/29 15:42:13;;;;;;;25.13;14.40;;;18.90;77.50;;;;;;4949947;28;20827;-77
2022/03/29 15:44:41;;;;;;;29.63;16.50;;;18.90;79.80;;;;;;4950267;29;20454;-77
2022/03/29 15:47:08;;;;;;;27.90;15.70;;;18.90;80.60;;;;;;4949965;29;20488;-77
2022/03/29 15:49:36;;;;;;;29.80;17.50;;;19.00;81.70;;;;;;4950237;29;20954;-77
2022/03/29 15:52:04;;;;;;;26.60;15.67;;;19.00;80.70;;;;;;4950302;28;20568;-77
2022/03/29 15:54:32;;;;;;;26.27;15.00;;;19.00;78.60;;;;;;4950066;28;20457;-77
2022/03/29 15:56:59;;;;;;;30.67;15.47;;;19.00;79.20;;;;;;4949275;29;20592;-76
2022/03/29 15:59:27;;;;;;;28.60;15.03;;;19.00;80.40;;;;;;4950724;29;20475;-75
2022/03/29 16:01:55;;;;;;;26.00;15.30;;;19.00;80.20;;;;;;4950267;28;20485;-75
2022/03/29 16:04:22;;;;;;;25.97;13.87;;;19.00;79.10;;;;;;4950388;29;20880;-75
2022/03/29 16:06:49;;;;;;;26.50;14.17;;;18.90;79.10;;;;;;4949870;29;20545;-74
2022/03/29 16:09:17;;;;;;;23.30;13.17;;;18.90;80.60;;;;;;4950328;29;20480;-74
2022/03/29 16:11:47;;;;;;;19.90;12.63;;;18.90;80.50;;;;;;4950833;28;20484;-74
2022/03/29 16:14:14;;;;;;;27.63;14.37;;;18.90;80.60;;;;;;4950770;28;21024;-74
2022/03/29 16:16:41;;;;;;;28.63;13.80;;;18.80;80.50;;;;;;4949962;29;20503;-74
2022/03/29 16:19:08;;;;;;;24.67;12.97;;;18.90;77.70;;;;;;4950177;29;20477;-74
2022/03/29 16:21:36;;;;;;;24.27;12.40;;;18.80;78.50;;;;;;4949958;28;20574;-74
2022/03/29 16:24:04;;;;;;;26.57;13.70;;;18.80;79.10;;;;;;4949680;29;20552;-73
2022/03/29 16:26:31;;;;;;;22.80;12.37;;;18.70;79.70;;;;;;4949514;29;20453;-74
2022/03/29 16:28:59;;;;;;;23.87;12.57;;;18.80;80.90;;;;;;4950077;28;20461;-74
2022/03/29 16:31:26;;;;;;;36.97;12.93;;;18.70;79.10;;;;;;4950219;28;20856;-75
2022/03/29 16:33:53;;;;;;;25.87;13.67;;;18.70;79.90;;;;;;4950330;29;20453;-74
2022/03/29 16:36:21;;;;;;;25.10;14.47;;;18.60;80.10;;;;;;4949553;29;20506;-74
2022/03/29 16:38:48;;;;;;;22.20;12.93;;;18.50;79.30;;;;;;4949269;28;20457;-74
2022/03/29 16:41:16;;;;;;;24.37;14.50;;;18.50;80.00;;;;;;4950353;28;20488;-74
2022/03/29 16:43:43;;;;;;;27.63;14.80;;;18.40;80.00;;;;;;4950673;29;20457;-74
2022/03/29 16:46:12;;;;;;;25.50;13.40;;;18.40;79.60;;;;;;4950540;29;20830;-75
2022/03/29 16:48:39;;;;;;;19.67;12.90;;;18.30;78.80;;;;;;4950148;29;20958;-74
2022/03/29 16:51:06;;;;;;;19.43;12.60;;;18.20;78.40;;;;;;4949354;29;20477;-75